Гомель

Карта отелей и гостиниц, располагающихся рядом с аэропортом Гомель :

Гомель Гомельская область 52° 31' 37.2612" N, 31° 1' 0.12" E
Код аэродрома ИКАО
UMGG
Код аэродрома RU
УМГГ
Координаты
N52.52702° E031.01670°
Превышение над уровнем моря
143
Основная полоса
10/28
Курс магнитный
102,8/282,8
Длина основной ВПП
2569
Ширина основной ВПП
43
Покрытие основной ВПП
Твёрдое
Освещение ВПП
Постоянное
Тип: 
Аэродром
Класс аэродрома: 
Международный
Принадлежность: 
ГА
Статус: 
Действующий
Сайт: 
http://www.avia.by/page-843-ru.html
Страна: 
Беларусь
Регион: 
Гомельская область
Дополнительная информация: 
Оператор: Гомельский филиал ГП "Белаэронавигация". Введен в эксплуатацию в 1967 г. В 1993 г. придан статус международного.
Погода: 

Авиационная погода в Гомеле

Регион: 
Погода METAR: 
UMGG 061030Z 11006MPS 2800 -SHSN BR SCT010 BKN030CB M01/M01 Q1014 NOSIG
Время наблюдения
2021-12-06T10:30:00Z
Температура C
-1.0
Точка росы
-1.0
Направление ветра
110
Скорость ветра (узлы)
12
Метео видимость
1.74
Явления погоды
-SHSN BR
Условия полета
IFR
Аэропорт подробнее: 

Найти трансфер

С помощью этой формы Вы можете найти трансфер из аэропорта Гомель в город, аэропорт или вокзал:

Карта места

Javascript is required to view this map.

Погода в аэропортах:

Авиационная погода в Кневичи

Регион: 
Погода METAR: 
UHWW 061030Z 32002MPS 0300 0100N R25L/2000D FZFG VV001 M04/M05 Q1026 R25L/0///70 NOSIG RMK QBB050 MT OBSC QFE768
Время наблюдения
2021-12-06T10:30:00Z
Температура C
-4.0
Точка росы
-5.0
Направление ветра
320
Скорость ветра (узлы)
4
Метео видимость
0.19
Явления погоды
FZFG
Условия полета
LIFR
Аэропорт подробнее: 

Авиационная погода в Киркенесе

Регион: 
Погода METAR: 
ENKR 061020Z 23020KT 9999 DRSN SCT100 M15/M20 Q1020 RMK WIND 731FT 23022KT
Время наблюдения
2021-12-06T10:20:00Z
Температура C
-15.0
Точка росы
-20.0
Направление ветра
230
Скорость ветра (узлы)
20
Метео видимость
6.21
Явления погоды
DRSN
Условия полета
VFR

Авиационная погода в Борисполе

Регион: 
Погода METAR: 
UKBB 061030Z 12004MPS 1500 1200W R18L/P2000N R18R/1500N BR OVC002 00/00 Q1011 NOSIG
Время наблюдения
2021-12-06T10:30:00Z
Температура C
0.0
Точка росы
0.0
Направление ветра
120
Скорость ветра (узлы)
8
Метео видимость
0.93
Явления погоды
BR
Условия полета
LIFR
Аэропорт подробнее: 

Авиационная погода в Аулие-Ата

Регион: 
Погода METAR: 
UADD 061130Z 36004MPS 5000 BR SCT026 OVC100 06/02 Q1022 NOSIG RMK QFE709/0945
Время наблюдения
2021-12-06T11:30:00Z
Температура C
6.0
Точка росы
2.0
Направление ветра
360
Скорость ветра (узлы)
8
Метео видимость
3.11
Явления погоды
BR
Условия полета
MVFR
Аэропорт подробнее: